Time;durP1;ratioP1;P1;durP2;ratioP2;P2;SDS_P1;SDS_P2;PMS_P1;PMS_P2;Temp;Humidity;BMP_temperature;BMP_pressure;BME280_temperature;BME280_humidity;BME280_pressure;Samples;Min_cycle;Max_cycle;Signal;HPM_P1;HPM_P2
2021/07/06 00:02:13;;;;;;;1.42;1.20;;;;;;;;;;5072170;28;20435;-49
2021/07/06 00:04:39;;;;;;;6.00;1.95;;;;;;;;;;5073378;28;20100;-49
2021/07/06 00:07:05;;;;;;;2.83;1.58;;;;;;;;;;5072385;28;20116;-49
2021/07/06 00:09:31;;;;;;;137.23;6.28;;;;;;;;;;5072663;28;20455;-49
2021/07/06 00:11:57;;;;;;;190.10;8.15;;;;;;;;;;5072053;28;20025;-49
2021/07/06 00:14:23;;;;;;;175.15;8.70;;;;;;;;;;5072654;28;20020;-49
2021/07/06 00:16:50;;;;;;;106.57;4.70;;;;;;;;;;5072839;28;20455;-49
2021/07/06 00:19:16;;;;;;;301.25;17.75;;;;;;;;;;5072801;28;20036;-49
2021/07/06 00:21:42;;;;;;;444.67;18.55;;;;;;;;;;5071875;28;20031;-49
2021/07/06 00:24:08;;;;;;;44.53;3.65;;;;;;;;;;5072983;28;20025;-49
2021/07/06 00:26:34;;;;;;;20.67;1.67;;;;;;;;;;5072447;28;20116;-49
2021/07/06 00:29:00;;;;;;;9.70;1.77;;;;;;;;;;5072709;28;20028;-49
2021/07/06 00:31:26;;;;;;;6.97;1.30;;;;;;;;;;5072044;28;20017;-49
2021/07/06 00:33:52;;;;;;;13.15;1.90;;;;;;;;;;5072479;28;20032;-49
2021/07/06 00:36:18;;;;;;;6.47;1.83;;;;;;;;;;5072811;28;20021;-49
2021/07/06 00:38:45;;;;;;;1.30;1.20;;;;;;;;;;5072439;28;20443;-49
2021/07/06 00:41:11;;;;;;;1.42;1.23;;;;;;;;;;5071963;28;20103;-49
2021/07/06 00:43:37;;;;;;;1.88;1.42;;;;;;;;;;5072204;28;20143;-49
2021/07/06 00:46:04;;;;;;;8.48;1.50;;;;;;;;;;5072644;28;20012;-48
2021/07/06 00:48:30;;;;;;;7.53;1.25;;;;;;;;;;5072362;28;20120;-49
2021/07/06 00:50:56;;;;;;;4.13;1.30;;;;;;;;;;5071729;28;20025;-49
2021/07/06 00:53:23;;;;;;;3.97;1.65;;;;;;;;;;5072396;28;20078;-49
2021/07/06 00:55:51;;;;;;;6.35;1.77;;;;;;;;;;5072492;28;20050;-49
2021/07/06 00:58:17;;;;;;;6.20;1.35;;;;;;;;;;5072583;28;20075;-49
2021/07/06 01:00:43;;;;;;;2.70;1.73;;;;;;;;;;5071849;28;20024;-49
2021/07/06 01:03:10;;;;;;;2.75;1.50;;;;;;;;;;5072349;28;20036;-49
2021/07/06 01:05:36;;;;;;;4.60;1.30;;;;;;;;;;5072362;28;20074;-49
2021/07/06 01:08:02;;;;;;;1.80;1.45;;;;;;;;;;5072320;28;20166;-49
2021/07/06 01:10:28;;;;;;;3.35;1.55;;;;;;;;;;5072689;28;20098;-49
2021/07/06 01:12:55;;;;;;;1.58;1.20;;;;;;;;;;5071698;28;20572;-49
2021/07/06 01:15:25;;;;;;;11.70;1.35;;;;;;;;;;5072188;28;20052;-49
2021/07/06 01:17:58;;;;;;;2.83;1.52;;;;;;;;;;5072202;28;20360;-49
2021/07/06 01:20:25;;;;;;;10.52;1.42;;;;;;;;;;5075391;28;20037;-49
2021/07/06 01:22:51;;;;;;;5.43;1.58;;;;;;;;;;5074962;28;20358;-49
2021/07/06 01:25:17;;;;;;;4.10;1.58;;;;;;;;;;5076039;28;20021;-49
2021/07/06 01:27:43;;;;;;;4.85;1.33;;;;;;;;;;5076181;28;20051;-49
2021/07/06 01:30:11;;;;;;;3.85;1.48;;;;;;;;;;5075836;28;20052;-49
2021/07/06 01:32:41;;;;;;;8.38;1.55;;;;;;;;;;5075611;28;20055;-49
2021/07/06 01:35:08;;;;;;;1.02;0.98;;;;;;;;;;5075401;28;20099;-49
2021/07/06 01:37:34;;;;;;;9.00;1.52;;;;;;;;;;5075793;28;20032;-49
2021/07/06 01:40:00;;;;;;;1.65;1.20;;;;;;;;;;5075795;28;20012;-49
2021/07/06 01:42:26;;;;;;;2.97;1.80;;;;;;;;;;5075062;28;20037;-48
2021/07/06 01:45:07;;;;;;;1.58;1.48;;;;;;;;;;5075478;28;20017;-49
2021/07/06 01:47:36;;;;;;;2.67;1.35;;;;;;;;;;5075664;28;20056;-49
2021/07/06 01:50:03;;;;;;;3.72;1.40;;;;;;;;;;5074983;28;20027;-49
2021/07/06 01:52:29;;;;;;;5.95;1.58;;;;;;;;;;5075186;28;20020;-49
2021/07/06 01:54:55;;;;;;;19.40;2.35;;;;;;;;;;5075380;28;20029;-48
2021/07/06 01:57:24;;;;;;;3.13;1.13;;;;;;;;;;5075547;28;20455;-48
2021/07/06 01:59:50;;;;;;;2.78;1.50;;;;;;;;;;5074820;28;20372;-49
2021/07/06 02:02:16;;;;;;;20.05;1.75;;;;;;;;;;5074435;28;20035;-50
2021/07/06 02:04:43;;;;;;;4.07;1.23;;;;;;;;;;5075038;28;20025;-49
2021/07/06 02:07:09;;;;;;;51.35;3.05;;;;;;;;;;5074975;28;20162;-48
2021/07/06 02:09:34;;;;;;;1.88;1.52;;;;;;;;;;5075082;28;20107;-49
2021/07/06 02:12:01;;;;;;;2.15;1.30;;;;;;;;;;5074356;28;20032;-49
2021/07/06 02:14:27;;;;;;;1.63;1.30;;;;;;;;;;5075231;28;20021;-49
2021/07/06 02:16:53;;;;;;;8.05;1.35;;;;;;;;;;5074473;28;20029;-49
2021/07/06 02:19:19;;;;;;;1.65;1.17;;;;;;;;;;5074450;28;20032;-49
2021/07/06 02:21:45;;;;;;;2.75;1.33;;;;;;;;;;5074229;28;20478;-48
2021/07/06 02:24:12;;;;;;;17.17;2.08;;;;;;;;;;5074950;28;20028;-48
2021/07/06 02:26:38;;;;;;;1.58;1.10;;;;;;;;;;5074647;28;20382;-49
2021/07/06 02:29:04;;;;;;;1.50;1.25;;;;;;;;;;5075001;28;20028;-48
2021/07/06 02:31:30;;;;;;;11.32;1.80;;;;;;;;;;5062124;28;20025;-49
2021/07/06 02:33:56;;;;;;;1.30;1.20;;;;;;;;;;5054691;28;20032;-49
2021/07/06 02:36:22;;;;;;;4.25;1.63;;;;;;;;;;5054962;28;20067;-49
2021/07/06 02:38:48;;;;;;;2.83;1.23;;;;;;;;;;5054515;28;20060;-49
2021/07/06 02:41:14;;;;;;;2.58;1.23;;;;;;;;;;5053886;28;20049;-49
2021/07/06 02:43:40;;;;;;;3.15;1.55;;;;;;;;;;5054141;28;20025;-49
2021/07/06 02:46:07;;;;;;;20.08;2.38;;;;;;;;;;5054405;28;20021;-49
2021/07/06 02:48:33;;;;;;;2.28;1.45;;;;;;;;;;5054199;28;20466;-49
2021/07/06 02:50:59;;;;;;;8.25;1.45;;;;;;;;;;5069028;28;20115;-49
2021/07/06 02:53:25;;;;;;;6.78;1.50;;;;;;;;;;5074582;28;20100;-48
2021/07/06 02:55:51;;;;;;;8.90;1.42;;;;;;;;;;5074313;28;20016;-49
2021/07/06 02:58:17;;;;;;;2.92;1.23;;;;;;;;;;5073889;28;20024;-49
2021/07/06 03:00:43;;;;;;;2.75;1.60;;;;;;;;;;5073160;28;20506;-49
2021/07/06 03:03:10;;;;;;;1.70;1.33;;;;;;;;;;5074061;28;20040;-49
2021/07/06 03:05:37;;;;;;;1.90;1.52;;;;;;;;;;5074168;28;20035;-48
2021/07/06 03:08:03;;;;;;;2.05;1.40;;;;;;;;;;5074075;28;20035;-48
2021/07/06 03:10:30;;;;;;;2.50;1.60;;;;;;;;;;5073756;28;20021;-49
2021/07/06 03:12:57;;;;;;;11.13;2.67;;;;;;;;;;5073452;28;20020;-49
2021/07/06 03:15:24;;;;;;;7.22;1.58;;;;;;;;;;5074130;28;20147;-49
2021/07/06 03:17:50;;;;;;;1.98;1.38;;;;;;;;;;5073660;28;20035;-48
2021/07/06 03:20:17;;;;;;;7.38;2.03;;;;;;;;;;5073727;28;20035;-49
2021/07/06 03:22:43;;;;;;;5.18;1.23;;;;;;;;;;5073197;28;20029;-49
2021/07/06 03:25:11;;;;;;;4.38;1.42;;;;;;;;;;5073531;28;20077;-49
2021/07/06 03:27:37;;;;;;;10.00;2.10;;;;;;;;;;5073067;28;20037;-49
2021/07/06 03:30:07;;;;;;;4.07;1.20;;;;;;;;;;5073635;28;20467;-49
2021/07/06 03:32:33;;;;;;;3.05;1.65;;;;;;;;;;5072350;28;20363;-48
2021/07/06 03:34:59;;;;;;;2.00;1.50;;;;;;;;;;5073538;28;20104;-49
2021/07/06 03:37:25;;;;;;;5.65;1.55;;;;;;;;;;5072946;28;20051;-49
2021/07/06 03:39:51;;;;;;;2.10;1.60;;;;;;;;;;5073055;28;20039;-49
2021/07/06 03:42:17;;;;;;;6.65;1.95;;;;;;;;;;5071745;28;20032;-49
2021/07/06 03:44:43;;;;;;;3.00;1.88;;;;;;;;;;5073093;28;20024;-49
2021/07/06 03:47:09;;;;;;;6.03;1.67;;;;;;;;;;5072781;28;20490;-49
2021/07/06 03:49:35;;;;;;;1.58;1.35;;;;;;;;;;5073197;28;20148;-49
2021/07/06 03:52:01;;;;;;;1.38;1.25;;;;;;;;;;5072823;28;20025;-48
2021/07/06 03:54:27;;;;;;;1.35;1.20;;;;;;;;;;5070890;28;20027;-49
2021/07/06 03:56:54;;;;;;;8.32;1.85;;;;;;;;;;5073521;28;20099;-49
2021/07/06 03:59:21;;;;;;;9.52;1.95;;;;;;;;;;5073195;28;20033;-48
2021/07/06 04:01:47;;;;;;;6.53;2.08;;;;;;;;;;5072332;28;20464;-48
2021/07/06 04:04:13;;;;;;;2.85;2.00;;;;;;;;;;5072868;28;20021;-48
2021/07/06 04:06:39;;;;;;;8.98;2.63;;;;;;;;;;5072878;28;20031;-48
2021/07/06 04:09:05;;;;;;;6.82;1.88;;;;;;;;;;5073093;28;20058;-48
2021/07/06 04:11:31;;;;;;;17.55;2.67;;;;;;;;;;5071905;28;20035;-49
2021/07/06 04:13:57;;;;;;;1.83;1.48;;;;;;;;;;5073224;28;20020;-49
2021/07/06 04:16:23;;;;;;;3.92;1.55;;;;;;;;;;5072540;28;20443;-49
2021/07/06 04:18:49;;;;;;;8.80;2.15;;;;;;;;;;5072445;28;20036;-49
2021/07/06 04:21:15;;;;;;;17.13;2.78;;;;;;;;;;5071392;28;20508;-48
2021/07/06 04:23:41;;;;;;;30.02;2.65;;;;;;;;;;5072650;28;20082;-49
2021/07/06 04:26:07;;;;;;;35.92;2.53;;;;;;;;;;5072994;28;20013;-49
2021/07/06 04:28:34;;;;;;;4.90;1.40;;;;;;;;;;5072772;28;20106;-49
2021/07/06 04:31:00;;;;;;;88.18;7.15;;;;;;;;;;5071574;28;20105;-48
2021/07/06 04:33:26;;;;;;;46.70;2.58;;;;;;;;;;5072164;28;20071;-49
2021/07/06 04:35:53;;;;;;;28.63;2.15;;;;;;;;;;5072449;28;20531;-49
2021/07/06 04:38:19;;;;;;;21.27;2.22;;;;;;;;;;5063641;28;20664;-49
2021/07/06 04:40:45;;;;;;;6.18;2.42;;;;;;;;;;5057059;28;20413;-49
2021/07/06 04:43:11;;;;;;;17.50;2.03;;;;;;;;;;5071068;28;20124;-49
2021/07/06 04:45:38;;;;;;;19.77;2.65;;;;;;;;;;5072912;28;20052;-49
2021/07/06 04:48:04;;;;;;;19.08;2.00;;;;;;;;;;5071866;28;20414;-49
2021/07/06 04:50:34;;;;;;;24.15;2.45;;;;;;;;;;5071871;28;20451;-49
2021/07/06 04:53:00;;;;;;;13.82;2.22;;;;;;;;;;5072668;28;20029;-49
2021/07/06 04:55:26;;;;;;;21.70;2.55;;;;;;;;;;5075697;28;20037;-49
2021/07/06 04:57:52;;;;;;;3.00;1.60;;;;;;;;;;5076679;28;20032;-49
2021/07/06 05:00:19;;;;;;;6.95;1.80;;;;;;;;;;5076534;28;20460;-49
2021/07/06 05:02:45;;;;;;;7.75;1.50;;;;;;;;;;5066697;28;20067;-49
2021/07/06 05:05:12;;;;;;;2.17;1.63;;;;;;;;;;5056687;28;20039;-49
2021/07/06 05:07:38;;;;;;;13.52;2.53;;;;;;;;;;5055932;28;20048;-49
2021/07/06 05:10:08;;;;;;;22.67;3.42;;;;;;;;;;5056223;28;20029;-49
2021/07/06 05:12:34;;;;;;;;;;;;;;;;;;5056051;28;20104;-49
2021/07/06 05:15:00;;;;;;;2.60;1.40;;;;;;;;;;5056043;28;20020;-49
2021/07/06 05:17:26;;;;;;;11.43;1.55;;;;;;;;;;5056493;28;20028;-49
2021/07/06 05:19:53;;;;;;;30.15;2.08;;;;;;;;;;5059522;28;20036;-49
2021/07/06 05:22:21;;;;;;;10.85;1.58;;;;;;;;;;5073203;28;20379;-49
2021/07/06 05:24:47;;;;;;;11.13;1.63;;;;;;;;;;5076439;28;20020;-49
2021/07/06 05:27:13;;;;;;;6.18;1.38;;;;;;;;;;5096458;28;20050;-50
2021/07/06 05:29:39;;;;;;;2.75;1.83;;;;;;;;;;5096038;28;20020;-49
2021/07/06 05:32:05;;;;;;;18.42;2.20;;;;;;;;;;5095287;28;20062;-49
2021/07/06 05:34:31;;;;;;;1.77;1.50;;;;;;;;;;5095956;28;20028;-49
2021/07/06 05:36:57;;;;;;;21.83;2.10;;;;;;;;;;5095754;28;20393;-49
2021/07/06 05:39:24;;;;;;;26.88;4.05;;;;;;;;;;5095837;28;20086;-49
2021/07/06 05:41:50;;;;;;;56.03;5.40;;;;;;;;;;5095644;28;20020;-49
2021/07/06 05:44:16;;;;;;;6.43;2.97;;;;;;;;;;5095748;28;20474;-49
2021/07/06 05:46:42;;;;;;;18.33;3.08;;;;;;;;;;5095431;28;20506;-49
2021/07/06 05:49:08;;;;;;;52.72;4.45;;;;;;;;;;5095440;28;20032;-49
2021/07/06 05:51:34;;;;;;;15.48;2.20;;;;;;;;;;5074970;28;20032;-49
2021/07/06 05:54:00;;;;;;;9.88;2.75;;;;;;;;;;5075320;28;20215;-50
2021/07/06 05:56:27;;;;;;;45.47;3.33;;;;;;;;;;5075499;28;20103;-49
2021/07/06 05:58:53;;;;;;;24.02;3.22;;;;;;;;;;5074692;28;20024;-49
2021/07/06 06:01:19;;;;;;;2.58;2.20;;;;;;;;;;5074600;28;20135;-49
2021/07/06 06:03:45;;;;;;;6.28;2.25;;;;;;;;;;5075523;28;20418;-49
2021/07/06 06:06:11;;;;;;;15.48;2.75;;;;;;;;;;5074300;28;20519;-49
2021/07/06 06:08:37;;;;;;;6.88;2.28;;;;;;;;;;5074979;28;20025;-49
2021/07/06 06:11:03;;;;;;;6.70;2.00;;;;;;;;;;5074479;28;20470;-49
2021/07/06 06:13:29;;;;;;;4.25;2.13;;;;;;;;;;5075287;28;20025;-49
2021/07/06 06:15:55;;;;;;;15.77;3.10;;;;;;;;;;5074825;28;20179;-49
2021/07/06 06:18:21;;;;;;;7.32;2.88;;;;;;;;;;5075236;28;20052;-49
2021/07/06 06:20:47;;;;;;;17.67;2.72;;;;;;;;;;5073894;28;20115;-49
2021/07/06 06:23:14;;;;;;;9.70;2.85;;;;;;;;;;5074695;28;20343;-49
2021/07/06 06:25:40;;;;;;;8.43;2.60;;;;;;;;;;5074891;28;20032;-49
2021/07/06 06:28:06;;;;;;;10.35;2.58;;;;;;;;;;5074948;28;20063;-49
2021/07/06 06:30:32;;;;;;;29.95;3.38;;;;;;;;;;5073993;28;20439;-49
2021/07/06 06:32:58;;;;;;;68.57;4.38;;;;;;;;;;5075006;28;20035;-49
2021/07/06 06:35:24;;;;;;;23.85;3.33;;;;;;;;;;5074925;28;20032;-49
2021/07/06 06:37:51;;;;;;;12.65;2.72;;;;;;;;;;5074639;28;20355;-49
2021/07/06 06:40:17;;;;;;;15.88;2.80;;;;;;;;;;5074513;28;20507;-49
2021/07/06 06:42:43;;;;;;;23.70;3.38;;;;;;;;;;5073421;28;20116;-49
2021/07/06 06:45:10;;;;;;;14.32;2.25;;;;;;;;;;5074497;28;20078;-49
2021/07/06 06:47:37;;;;;;;38.50;3.28;;;;;;;;;;5074487;28;20039;-49
2021/07/06 06:50:06;;;;;;;11.60;2.13;;;;;;;;;;5074398;28;20107;-49
2021/07/06 06:52:32;;;;;;;149.52;6.50;;;;;;;;;;5073643;28;20022;-49
2021/07/06 06:54:58;;;;;;;26.95;2.60;;;;;;;;;;5074342;28;20074;-49
2021/07/06 06:57:25;;;;;;;103.72;8.23;;;;;;;;;;5074340;28;20017;-49
2021/07/06 06:59:51;;;;;;;34.75;3.03;;;;;;;;;;5074331;28;20115;-49
2021/07/06 07:02:17;;;;;;;51.92;3.58;;;;;;;;;;5073735;28;20037;-49
2021/07/06 07:04:53;;;;;;;36.80;4.15;;;;;;;;;;5074151;28;20077;-49
2021/07/06 07:07:20;;;;;;;3.33;1.70;;;;;;;;;;5073528;28;20036;-49
2021/07/06 07:09:46;;;;;;;15.50;4.18;;;;;;;;;;5073601;28;20027;-49
2021/07/06 07:12:12;;;;;;;11.27;3.47;;;;;;;;;;5073287;28;20356;-49
2021/07/06 07:14:38;;;;;;;39.90;3.42;;;;;;;;;;5074077;28;20088;-49
2021/07/06 07:17:05;;;;;;;150.20;8.55;;;;;;;;;;5069171;28;20017;-49
2021/07/06 07:19:31;;;;;;;25.30;2.85;;;;;;;;;;5053695;28;20025;-50
2021/07/06 07:21:57;;;;;;;28.58;2.80;;;;;;;;;;5052841;28;20448;-50
2021/07/06 07:24:23;;;;;;;14.38;2.33;;;;;;;;;;5053515;28;20024;-49
2021/07/06 07:26:49;;;;;;;236.90;12.68;;;;;;;;;;5053528;28;20029;-49
2021/07/06 07:29:15;;;;;;;10.05;2.10;;;;;;;;;;5053723;28;20119;-49
2021/07/06 07:31:42;;;;;;;9.63;3.03;;;;;;;;;;5053004;28;20043;-50
2021/07/06 07:34:08;;;;;;;4.55;2.75;;;;;;;;;;5054097;28;20025;-50
2021/07/06 07:36:34;;;;;;;218.00;10.77;;;;;;;;;;5053708;28;20021;-49
2021/07/06 07:39:00;;;;;;;159.32;9.05;;;;;;;;;;5053198;28;20021;-49
2021/07/06 07:41:26;;;;;;;6.97;2.80;;;;;;;;;;5052374;28;20040;-49
2021/07/06 07:43:55;;;;;;;28.80;3.25;;;;;;;;;;5053670;28;20021;-50
2021/07/06 07:46:24;;;;;;;26.48;4.10;;;;;;;;;;5053328;28;20025;-49
2021/07/06 07:48:50;;;;;;;7.50;2.75;;;;;;;;;;5053443;28;20112;-49
2021/07/06 07:51:17;;;;;;;17.40;4.57;;;;;;;;;;5069863;28;20031;-49
2021/07/06 07:53:43;;;;;;;12.65;5.72;;;;;;;;;;5072937;28;20021;-49
2021/07/06 07:56:09;;;;;;;13.00;3.95;;;;;;;;;;5073120;28;20024;-49
2021/07/06 07:58:35;;;;;;;10.27;4.80;;;;;;;;;;5073058;28;20035;-49
2021/07/06 08:01:01;;;;;;;8.57;3.85;;;;;;;;;;5072228;28;20029;-50
2021/07/06 08:03:27;;;;;;;6.03;3.30;;;;;;;;;;5073331;28;20108;-50
2021/07/06 08:05:53;;;;;;;6.90;2.88;;;;;;;;;;5072910;28;20116;-49
2021/07/06 08:08:19;;;;;;;2.78;2.28;;;;;;;;;;5072158;28;20036;-49
2021/07/06 08:10:51;;;;;;;4.95;2.42;;;;;;;;;;5072071;28;20029;-49
2021/07/06 08:13:17;;;;;;;2.53;1.95;;;;;;;;;;5073351;28;20489;-49
2021/07/06 08:15:43;;;;;;;6.78;1.90;;;;;;;;;;5072487;28;20456;-49
2021/07/06 08:18:09;;;;;;;3.33;2.05;;;;;;;;;;5073164;28;20111;-49
2021/07/06 08:20:35;;;;;;;4.80;2.22;;;;;;;;;;5071619;28;20040;-49
2021/07/06 08:23:01;;;;;;;5.43;2.13;;;;;;;;;;5072725;28;20040;-49
2021/07/06 08:25:27;;;;;;;12.55;3.38;;;;;;;;;;5072857;28;20075;-49
2021/07/06 08:27:53;;;;;;;4.40;2.08;;;;;;;;;;5072359;28;20081;-49
2021/07/06 08:30:20;;;;;;;2.75;1.58;;;;;;;;;;5063577;28;20040;-49
2021/07/06 08:32:46;;;;;;;3.88;2.08;;;;;;;;;;5051999;28;20021;-50
2021/07/06 08:35:12;;;;;;;3.65;1.60;;;;;;;;;;5052708;28;20052;-49
2021/07/06 08:37:38;;;;;;;1.90;1.45;;;;;;;;;;5052485;28;20036;-50
2021/07/06 08:40:06;;;;;;;1.90;1.65;;;;;;;;;;5052902;28;20025;-49
2021/07/06 08:42:32;;;;;;;9.43;2.20;;;;;;;;;;5051507;28;20456;-49
2021/07/06 08:44:58;;;;;;;17.20;2.75;;;;;;;;;;5052609;28;20344;-50
2021/07/06 08:47:24;;;;;;;5.13;1.88;;;;;;;;;;5052615;28;20367;-49
2021/07/06 08:49:50;;;;;;;6.43;1.80;;;;;;;;;;5056448;28;20456;-49
2021/07/06 08:52:18;;;;;;;3.72;1.65;;;;;;;;;;5071977;28;20035;-49
2021/07/06 08:54:44;;;;;;;2.22;1.50;;;;;;;;;;5072609;28;20025;-49
2021/07/06 08:57:10;;;;;;;1.75;1.30;;;;;;;;;;5072592;28;20116;-49
2021/07/06 08:59:37;;;;;;;1.73;1.50;;;;;;;;;;5072742;28;20048;-50
2021/07/06 09:02:03;;;;;;;3.65;1.50;;;;;;;;;;5071773;28;20069;-49
2021/07/06 09:04:42;;;;;;;26.25;2.05;;;;;;;;;;5072473;28;20063;-49
2021/07/06 09:07:08;;;;;;;9.27;1.83;;;;;;;;;;5072399;28;20056;-49
2021/07/06 09:09:34;;;;;;;3.47;2.08;;;;;;;;;;5072357;28;20044;-50
2021/07/06 09:12:00;;;;;;;4.47;1.80;;;;;;;;;;5071755;28;20483;-49
2021/07/06 09:14:30;;;;;;;6.03;1.90;;;;;;;;;;5072733;28;20025;-49
2021/07/06 09:17:16;;;;;;;4.93;1.20;;;;;;;;;;5071860;28;20359;-49
2021/07/06 09:19:43;;;;;;;1.50;1.33;;;;;;;;;;5072103;28;20041;-50
2021/07/06 09:22:18;;;;;;;10.73;1.50;;;;;;;;;;5071509;28;20108;-49
2021/07/06 09:24:46;;;;;;;1.42;1.30;;;;;;;;;;5071935;28;20051;-49
2021/07/06 09:27:21;;;;;;;4.32;1.80;;;;;;;;;;5072005;28;20052;-49
2021/07/06 09:30:05;;;;;;;1.98;1.63;;;;;;;;;;5072107;28;20509;-50
2021/07/06 09:32:32;;;;;;;42.15;3.40;;;;;;;;;;5071342;28;20028;-49
2021/07/06 09:35:08;;;;;;;275.27;16.02;;;;;;;;;;5072161;28;20036;-49
2021/07/06 09:37:54;;;;;;;30.05;1.88;;;;;;;;;;5072091;28;20032;-49
2021/07/06 09:40:21;;;;;;;6.22;1.20;;;;;;;;;;5073664;28;20031;-49
2021/07/06 09:42:47;;;;;;;9.27;1.42;;;;;;;;;;5074944;28;20350;-49
2021/07/06 09:45:13;;;;;;;1.33;1.23;;;;;;;;;;5075557;28;20115;-49
2021/07/06 09:47:39;;;;;;;10.77;1.38;;;;;;;;;;5075712;28;20036;-50
2021/07/06 09:50:05;;;;;;;6.00;1.73;;;;;;;;;;5075441;28;20029;-49
2021/07/06 09:52:35;;;;;;;3.55;1.50;;;;;;;;;;5074179;28;20403;-49
2021/07/06 09:55:06;;;;;;;4.93;2.47;;;;;;;;;;5074415;28;20036;-49
2021/07/06 09:57:37;;;;;;;1.20;1.15;;;;;;;;;;5075669;28;20028;-49
2021/07/06 10:00:08;;;;;;;33.83;2.42;;;;;;;;;;5075576;28;20035;-49
2021/07/06 10:02:34;;;;;;;1.27;1.17;;;;;;;;;;5074548;28;20067;-49
2021/07/06 10:05:04;;;;;;;11.18;1.33;;;;;;;;;;5075128;28;20029;-49
2021/07/06 10:07:30;;;;;;;15.40;1.55;;;;;;;;;;5075362;28;20081;-49
2021/07/06 10:09:57;;;;;;;2.58;1.20;;;;;;;;;;5074930;28;20448;-50
2021/07/06 10:12:24;;;;;;;5.32;1.30;;;;;;;;;;5074319;28;20040;-49
2021/07/06 10:14:50;;;;;;;2.28;1.30;;;;;;;;;;5075308;28;20078;-49
2021/07/06 10:17:16;;;;;;;2.90;1.20;;;;;;;;;;5074555;28;20355;-49
2021/07/06 10:19:43;;;;;;;2.13;0.90;;;;;;;;;;5075007;28;20436;-50
2021/07/06 10:22:09;;;;;;;12.32;2.03;;;;;;;;;;5074154;28;20024;-49
2021/07/06 10:24:42;;;;;;;3.92;1.02;;;;;;;;;;5075203;28;20321;-49
2021/07/06 10:27:13;;;;;;;12.20;1.65;;;;;;;;;;5074615;28;20368;-49
2021/07/06 10:29:41;;;;;;;2.60;1.20;;;;;;;;;;5074603;28;20008;-49
2021/07/06 10:32:07;;;;;;;2.08;1.38;;;;;;;;;;5074217;28;20040;-50
2021/07/06 10:34:42;;;;;;;1.38;1.25;;;;;;;;;;5075148;28;20021;-49
2021/07/06 10:37:28;;;;;;;4.18;1.08;;;;;;;;;;5074952;28;20059;-49
2021/07/06 10:39:54;;;;;;;3.28;1.20;;;;;;;;;;5074284;28;20417;-49
2021/07/06 10:42:37;;;;;;;2.53;1.20;;;;;;;;;;5073573;28;20032;-49
2021/07/06 10:45:16;;;;;;;2.00;1.30;;;;;;;;;;5074886;28;20023;-49
2021/07/06 10:47:46;;;;;;;2.13;1.10;;;;;;;;;;5074412;28;20039;-49
2021/07/06 10:50:24;;;;;;;2.80;1.17;;;;;;;;;;5074461;28;20032;-49
2021/07/06 10:53:10;;;;;;;1.10;1.00;;;;;;;;;;5072717;28;20336;-49
2021/07/06 10:55:36;;;;;;;1.65;1.05;;;;;;;;;;5073892;28;20120;-49
2021/07/06 10:58:02;;;;;;;1.40;1.20;;;;;;;;;;5074459;28;20082;-49
2021/07/06 11:00:45;;;;;;;4.90;1.08;;;;;;;;;;5074151;28;20024;-49
2021/07/06 11:03:15;;;;;;;5.70;1.15;;;;;;;;;;5073843;28;20035;-49
2021/07/06 11:05:41;;;;;;;1.13;1.02;;;;;;;;;;5074280;28;20024;-49
2021/07/06 11:08:07;;;;;;;5.57;1.20;;;;;;;;;;5073887;28;20043;-49
2021/07/06 11:10:36;;;;;;;2.10;1.27;;;;;;;;;;5073163;28;20035;-49
2021/07/06 11:13:15;;;;;;;1.42;1.30;;;;;;;;;;5074005;28;20079;-49
2021/07/06 11:15:42;;;;;;;6.87;1.53;;;;;;;;;;5074130;28;20240;-49
2021/07/06 11:18:11;;;;;;;2.95;1.30;;;;;;;;;;5073719;28;20267;-49
2021/07/06 11:20:45;;;;;;;3.30;1.77;;;;;;;;;;5072509;28;20074;-49
2021/07/06 11:23:16;;;;;;;1.63;1.17;;;;;;;;;;5073646;28;20027;-49
2021/07/06 11:25:43;;;;;;;1.30;1.20;;;;;;;;;;5073901;28;20031;-49
2021/07/06 11:28:27;;;;;;;1.52;1.33;;;;;;;;;;5073121;28;20068;-49
2021/07/06 11:30:54;;;;;;;3.47;1.58;;;;;;;;;;5072704;28;20408;-49
2021/07/06 11:33:34;;;;;;;6.43;1.50;;;;;;;;;;5073622;28;20024;-49
2021/07/06 11:36:08;;;;;;;3.33;1.33;;;;;;;;;;5073756;28;20367;-49
2021/07/06 11:38:34;;;;;;;7.03;1.40;;;;;;;;;;5073301;28;20021;-49
2021/07/06 11:41:01;;;;;;;6.43;1.48;;;;;;;;;;5072742;28;20033;-49
2021/07/06 11:43:29;;;;;;;7.95;1.50;;;;;;;;;;5073540;28;20089;-49
2021/07/06 11:45:57;;;;;;;7.70;1.75;;;;;;;;;;5073378;28;20028;-50
2021/07/06 11:48:24;;;;;;;1.45;1.17;;;;;;;;;;5073527;28;20083;-49
2021/07/06 11:50:50;;;;;;;2.35;1.40;;;;;;;;;;5072332;28;20035;-49
2021/07/06 11:53:23;;;;;;;2.05;1.10;;;;;;;;;;5073233;28;20020;-49
2021/07/06 11:55:50;;;;;;;1.35;1.20;;;;;;;;;;5073224;28;20035;-49
2021/07/06 11:58:20;;;;;;;2.80;1.60;;;;;;;;;;5072704;28;20024;-50
2021/07/06 12:00:46;;;;;;;3.08;1.52;;;;;;;;;;5072838;28;20020;-49
2021/07/06 12:03:15;;;;;;;4.35;1.55;;;;;;;;;;5072288;28;20043;-50
2021/07/06 12:05:41;;;;;;;6.72;1.48;;;;;;;;;;5072670;28;20500;-49
2021/07/06 12:08:13;;;;;;;1.55;1.10;;;;;;;;;;5072990;28;20040;-49
2021/07/06 12:10:51;;;;;;;2.55;1.38;;;;;;;;;;5072225;28;20060;-50
2021/07/06 12:13:17;;;;;;;4.20;1.88;;;;;;;;;;5072931;28;20024;-49
2021/07/06 12:15:45;;;;;;;1.02;1.00;;;;;;;;;;5072851;28;20135;-49
2021/07/06 12:18:12;;;;;;;1.98;1.35;;;;;;;;;;5073102;28;20028;-49
2021/07/06 12:20:38;;;;;;;7.40;1.25;;;;;;;;;;5072171;28;20032;-49
2021/07/06 12:23:04;;;;;;;2.13;1.10;;;;;;;;;;5072963;28;20074;-49
2021/07/06 12:25:30;;;;;;;1.00;0.75;;;;;;;;;;5072459;28;20024;-49
2021/07/06 12:27:57;;;;;;;1.17;1.05;;;;;;;;;;5072600;28;20111;-49
2021/07/06 12:30:23;;;;;;;1.52;1.10;;;;;;;;;;5073144;28;20028;-49
2021/07/06 12:33:06;;;;;;;1.20;1.10;;;;;;;;;;5071858;28;20027;-49
2021/07/06 12:35:32;;;;;;;1.58;1.10;;;;;;;;;;5072879;28;20112;-49
2021/07/06 12:38:05;;;;;;;0.98;0.88;;;;;;;;;;5072656;28;20063;-49
2021/07/06 12:40:31;;;;;;;1.08;1.00;;;;;;;;;;5072234;28;20082;-49
2021/07/06 12:42:58;;;;;;;9.38;1.10;;;;;;;;;;5072179;28;20436;-49
2021/07/06 12:45:32;;;;;;;5.47;1.50;;;;;;;;;;5072557;28;20037;-49
2021/07/06 12:47:58;;;;;;;0.80;0.80;;;;;;;;;;5072714;28;20040;-49
2021/07/06 12:50:26;;;;;;;0.73;0.73;;;;;;;;;;5072213;28;20436;-49
2021/07/06 12:52:58;;;;;;;1.25;1.00;;;;;;;;;;5072415;28;20033;-50
2021/07/06 12:55:25;;;;;;;3.10;1.15;;;;;;;;;;5072488;28;20036;-49
2021/07/06 12:58:07;;;;;;;1.55;0.70;;;;;;;;;;5071984;28;20363;-50
2021/07/06 13:00:34;;;;;;;1.63;1.00;;;;;;;;;;5072153;28;20027;-49
2021/07/06 13:03:04;;;;;;;2.67;0.82;;;;;;;;;;5072409;28;20100;-49
2021/07/06 13:05:34;;;;;;;0.70;0.70;;;;;;;;;;5072755;28;20036;-49
2021/07/06 13:08:00;;;;;;;1.30;1.10;;;;;;;;;;5072279;28;20041;-49
2021/07/06 13:10:34;;;;;;;0.75;0.75;;;;;;;;;;5070674;28;20025;-49
2021/07/06 13:13:05;;;;;;;12.10;1.55;;;;;;;;;;5072612;28;20040;-49
2021/07/06 13:15:33;;;;;;;1.85;1.02;;;;;;;;;;5074125;28;20021;-49
2021/07/06 13:17:59;;;;;;;3.70;0.80;;;;;;;;;;5076185;28;20025;-49
2021/07/06 13:20:26;;;;;;;1.98;0.80;;;;;;;;;;5075803;28;20029;-49
2021/07/06 13:22:55;;;;;;;1.50;0.75;;;;;;;;;;5075184;28;20568;-49
2021/07/06 13:25:22;;;;;;;0.93;0.70;;;;;;;;;;5076167;28;20283;-49
2021/07/06 13:27:48;;;;;;;1.05;0.70;;;;;;;;;;5069653;28;20055;-49
2021/07/06 13:30:14;;;;;;;1.10;0.80;;;;;;;;;;5076011;28;20108;-49
2021/07/06 13:32:44;;;;;;;5.32;0.90;;;;;;;;;;5075308;28;20035;-49
2021/07/06 13:35:12;;;;;;;1.50;0.90;;;;;;;;;;5075841;28;20116;-50
2021/07/06 13:37:39;;;;;;;7.95;0.93;;;;;;;;;;5076047;28;20111;-50
2021/07/06 13:40:06;;;;;;;5.65;0.95;;;;;;;;;;5075732;28;20048;-49
2021/07/06 13:42:32;;;;;;;1.17;0.85;;;;;;;;;;5074637;28;20036;-49
2021/07/06 13:44:58;;;;;;;0.70;0.70;;;;;;;;;;5075682;28;20021;-49
2021/07/06 13:47:24;;;;;;;2.45;1.05;;;;;;;;;;5075305;28;20098;-49
2021/07/06 13:49:50;;;;;;;1.00;0.70;;;;;;;;;;5075461;28;20024;-49
2021/07/06 13:52:16;;;;;;;7.97;1.00;;;;;;;;;;5075143;28;20044;-49
2021/07/06 13:54:44;;;;;;;1.10;1.00;;;;;;;;;;5075501;28;20478;-49
2021/07/06 13:57:13;;;;;;;1.10;0.98;;;;;;;;;;5070590;28;20024;-49
2021/07/06 13:59:39;;;;;;;1.35;0.88;;;;;;;;;;5074499;28;20122;-49
2021/07/06 14:02:05;;;;;;;0.80;0.80;;;;;;;;;;5074821;28;20050;-49
2021/07/06 14:04:31;;;;;;;5.25;0.88;;;;;;;;;;5074885;28;20032;-50
2021/07/06 14:06:57;;;;;;;0.80;0.80;;;;;;;;;;5075684;28;20021;-49
2021/07/06 14:09:23;;;;;;;2.30;1.08;;;;;;;;;;5074916;28;20028;-49
2021/07/06 14:11:49;;;;;;;3.05;1.08;;;;;;;;;;5074567;28;20024;-49
2021/07/06 14:14:15;;;;;;;4.35;1.35;;;;;;;;;;5075115;28;20029;-49
2021/07/06 14:16:41;;;;;;;6.88;1.40;;;;;;;;;;5075193;28;20032;-49
2021/07/06 14:19:07;;;;;;;2.50;1.40;;;;;;;;;;5065291;28;20036;-49
2021/07/06 14:21:34;;;;;;;2.83;0.98;;;;;;;;;;5073933;28;20016;-49
2021/07/06 14:24:00;;;;;;;2.35;1.20;;;;;;;;;;5075445;28;20027;-50
2021/07/06 14:26:26;;;;;;;2.05;1.20;;;;;;;;;;5073893;28;20078;-49
2021/07/06 14:28:53;;;;;;;1.33;1.00;;;;;;;;;;5074995;28;20037;-49
2021/07/06 14:31:19;;;;;;;1.63;1.08;;;;;;;;;;5073874;28;20020;-49
2021/07/06 14:33:45;;;;;;;2.00;1.10;;;;;;;;;;5074935;28;20120;-49
2021/07/06 14:36:12;;;;;;;1.83;1.20;;;;;;;;;;5074674;28;20031;-49
2021/07/06 14:38:38;;;;;;;1.40;1.00;;;;;;;;;;5075046;28;20063;-49
2021/07/06 14:41:04;;;;;;;2.20;1.30;;;;;;;;;;5073795;28;20105;-49